Terminal Aerodrome Forecast
Issued by NWS

Home | Current Version | Previous Version | Text Only | Print | Product List | Glossary Off
Versions: 1 2 3 4 5 6 7 8 9 10 11 12 13 14 15 16 17

000
FTUS43 KICT 250500
TAFCNU
TAF
KCNU 250520Z 2506/2606 19006KT P6SM SKC
     FM250900 VRB03KT 3SM BR SKC
      TEMPO 2511/2513 1SM BR
     FM251400 08005KT P6SM SKC
     FM252200 12007KT P6SM SKC=

USA.gov is the U.S. government's official web portal to all federal, state and local government web resources and services.